sensor_id;sensor_type;location;lat;lon;timestamp;P1;durP1;ratioP1;P2;durP2;ratioP2
74102;SDS011;62853;46.166;3.640;2023-03-01T00:03:14;5.07;;;3.22;;
74102;SDS011;62853;46.166;3.640;2023-03-01T00:06:25;4.05;;;2.95;;
74102;SDS011;62853;46.166;3.640;2023-03-01T00:13:31;4.50;;;2.92;;
74102;SDS011;62853;46.166;3.640;2023-03-01T00:16:39;3.80;;;2.70;;
74102;SDS011;62853;46.166;3.640;2023-03-01T00:26:18;3.83;;;2.72;;
74102;SDS011;62853;46.166;3.640;2023-03-01T00:33:10;5.10;;;3.17;;
74102;SDS011;62853;46.166;3.640;2023-03-01T00:36:13;5.05;;;2.50;;
74102;SDS011;62853;46.166;3.640;2023-03-01T00:39:12;3.47;;;2.78;;
74102;SDS011;62853;46.166;3.640;2023-03-01T00:42:28;4.72;;;2.60;;
74102;SDS011;62853;46.166;3.640;2023-03-01T00:48:26;4.50;;;2.85;;
74102;SDS011;62853;46.166;3.640;2023-03-01T00:51:42;5.25;;;2.80;;
74102;SDS011;62853;46.166;3.640;2023-03-01T00:54:39;5.25;;;2.97;;
74102;SDS011;62853;46.166;3.640;2023-03-01T01:00:48;5.10;;;2.78;;
74102;SDS011;62853;46.166;3.640;2023-03-01T01:24:15;4.82;;;3.08;;
74102;SDS011;62853;46.166;3.640;2023-03-01T01:34:17;4.78;;;3.30;;
74102;SDS011;62853;46.166;3.640;2023-03-01T01:37:11;4.15;;;2.67;;
74102;SDS011;62853;46.166;3.640;2023-03-01T01:39:40;4.40;;;2.83;;
74102;SDS011;62853;46.166;3.640;2023-03-01T01:45:42;4.45;;;2.63;;
74102;SDS011;62853;46.166;3.640;2023-03-01T01:48:41;4.43;;;2.78;;
74102;SDS011;62853;46.166;3.640;2023-03-01T01:51:55;3.83;;;2.70;;
74102;SDS011;62853;46.166;3.640;2023-03-01T01:58:08;3.92;;;2.40;;
74102;SDS011;62853;46.166;3.640;2023-03-01T02:00:52;4.45;;;2.80;;
74102;SDS011;62853;46.166;3.640;2023-03-01T02:04:14;4.60;;;2.80;;
74102;SDS011;62853;46.166;3.640;2023-03-01T02:07:08;4.28;;;2.70;;
74102;SDS011;62853;46.166;3.640;2023-03-01T02:10:23;4.68;;;2.60;;
74102;SDS011;62853;46.166;3.640;2023-03-01T02:16:11;3.60;;;2.80;;
74102;SDS011;62853;46.166;3.640;2023-03-01T02:18:57;5.07;;;2.88;;
74102;SDS011;62853;46.166;3.640;2023-03-01T02:30:39;4.63;;;2.53;;
74102;SDS011;62853;46.166;3.640;2023-03-01T02:33:32;3.72;;;2.80;;
74102;SDS011;62853;46.166;3.640;2023-03-01T02:36:34;4.05;;;2.38;;
74102;SDS011;62853;46.166;3.640;2023-03-01T02:51:48;5.30;;;3.20;;
74102;SDS011;62853;46.166;3.640;2023-03-01T02:57:52;4.15;;;2.50;;
74102;SDS011;62853;46.166;3.640;2023-03-01T03:03:59;3.72;;;2.30;;
74102;SDS011;62853;46.166;3.640;2023-03-01T03:06:54;4.20;;;2.40;;
74102;SDS011;62853;46.166;3.640;2023-03-01T03:09:57;4.95;;;2.70;;
74102;SDS011;62853;46.166;3.640;2023-03-01T03:13:02;3.60;;;2.60;;
74102;SDS011;62853;46.166;3.640;2023-03-01T03:15:59;3.58;;;2.47;;
74102;SDS011;62853;46.166;3.640;2023-03-01T03:18:50;4.15;;;2.65;;
74102;SDS011;62853;46.166;3.640;2023-03-01T03:21:26;4.45;;;2.60;;
74102;SDS011;62853;46.166;3.640;2023-03-01T03:24:14;4.82;;;2.95;;
74102;SDS011;62853;46.166;3.640;2023-03-01T03:26:50;3.15;;;2.45;;
74102;SDS011;62853;46.166;3.640;2023-03-01T03:29:18;5.30;;;2.70;;
74102;SDS011;62853;46.166;3.640;2023-03-01T03:31:46;4.30;;;2.75;;
74102;SDS011;62853;46.166;3.640;2023-03-01T03:34:16;2.95;;;2.50;;
74102;SDS011;62853;46.166;3.640;2023-03-01T03:36:49;3.03;;;2.10;;
74102;SDS011;62853;46.166;3.640;2023-03-01T03:39:26;5.35;;;2.40;;
74102;SDS011;62853;46.166;3.640;2023-03-01T03:41:59;5.13;;;2.72;;
74102;SDS011;62853;46.166;3.640;2023-03-01T03:44:30;4.43;;;2.63;;
74102;SDS011;62853;46.166;3.640;2023-03-01T03:53:44;5.03;;;2.58;;
74102;SDS011;62853;46.166;3.640;2023-03-01T03:56:42;4.05;;;2.67;;
74102;SDS011;62853;46.166;3.640;2023-03-01T03:59:37;4.50;;;2.53;;
74102;SDS011;62853;46.166;3.640;2023-03-01T04:11:38;4.70;;;2.78;;
74102;SDS011;62853;46.166;3.640;2023-03-01T04:14:16;5.15;;;2.60;;
74102;SDS011;62853;46.166;3.640;2023-03-01T04:17:08;3.75;;;2.35;;
74102;SDS011;62853;46.166;3.640;2023-03-01T04:20:02;4.82;;;2.50;;
74102;SDS011;62853;46.166;3.640;2023-03-01T04:25:47;3.90;;;2.50;;
74102;SDS011;62853;46.166;3.640;2023-03-01T04:28:54;4.82;;;2.40;;
74102;SDS011;62853;46.166;3.640;2023-03-01T04:31:22;4.22;;;2.72;;
74102;SDS011;62853;46.166;3.640;2023-03-01T04:36:46;2.88;;;2.05;;
74102;SDS011;62853;46.166;3.640;2023-03-01T04:39:29;4.30;;;2.47;;
74102;SDS011;62853;46.166;3.640;2023-03-01T04:42:17;3.33;;;2.20;;
74102;SDS011;62853;46.166;3.640;2023-03-01T04:44:50;4.50;;;2.83;;
74102;SDS011;62853;46.166;3.640;2023-03-01T04:47:28;4.60;;;2.75;;
74102;SDS011;62853;46.166;3.640;2023-03-01T04:50:19;6.78;;;3.13;;
74102;SDS011;62853;46.166;3.640;2023-03-01T04:53:10;4.53;;;3.08;;
74102;SDS011;62853;46.166;3.640;2023-03-01T04:56:00;4.20;;;2.80;;
74102;SDS011;62853;46.166;3.640;2023-03-01T04:58:44;4.10;;;2.63;;
74102;SDS011;62853;46.166;3.640;2023-03-01T05:01:18;3.83;;;2.40;;
74102;SDS011;62853;46.166;3.640;2023-03-01T05:04:28;4.05;;;2.65;;
74102;SDS011;62853;46.166;3.640;2023-03-01T05:07:19;3.42;;;2.50;;
74102;SDS011;62853;46.166;3.640;2023-03-01T05:10:21;4.63;;;2.90;;
74102;SDS011;62853;46.166;3.640;2023-03-01T05:13:21;5.95;;;3.20;;
74102;SDS011;62853;46.166;3.640;2023-03-01T05:16:17;4.35;;;2.83;;
74102;SDS011;62853;46.166;3.640;2023-03-01T05:18:58;4.43;;;2.70;;
74102;SDS011;62853;46.166;3.640;2023-03-01T05:22:00;3.67;;;2.50;;
74102;SDS011;62853;46.166;3.640;2023-03-01T05:24:48;5.68;;;3.28;;
74102;SDS011;62853;46.166;3.640;2023-03-01T05:27:32;4.55;;;3.03;;
74102;SDS011;62853;46.166;3.640;2023-03-01T05:30:18;6.47;;;3.08;;
74102;SDS011;62853;46.166;3.640;2023-03-01T05:32:49;5.30;;;3.03;;
74102;SDS011;62853;46.166;3.640;2023-03-01T05:38:19;5.10;;;3.13;;
74102;SDS011;62853;46.166;3.640;2023-03-01T05:40:54;4.22;;;2.92;;
74102;SDS011;62853;46.166;3.640;2023-03-01T05:43:32;5.38;;;2.80;;
74102;SDS011;62853;46.166;3.640;2023-03-01T05:46:13;4.25;;;2.67;;
74102;SDS011;62853;46.166;3.640;2023-03-01T05:49:07;4.57;;;3.00;;
74102;SDS011;62853;46.166;3.640;2023-03-01T05:52:00;3.97;;;2.70;;
74102;SDS011;62853;46.166;3.640;2023-03-01T05:57:48;4.07;;;2.70;;
74102;SDS011;62853;46.166;3.640;2023-03-01T06:00:48;4.75;;;2.95;;
74102;SDS011;62853;46.166;3.640;2023-03-01T06:03:38;5.22;;;3.15;;
74102;SDS011;62853;46.166;3.640;2023-03-01T06:06:21;4.25;;;2.97;;
74102;SDS011;62853;46.166;3.640;2023-03-01T06:09:08;5.57;;;3.55;;
74102;SDS011;62853;46.166;3.640;2023-03-01T06:11:52;7.95;;;3.53;;
74102;SDS011;62853;46.166;3.640;2023-03-01T06:14:57;4.95;;;3.20;;
74102;SDS011;62853;46.166;3.640;2023-03-01T06:17:29;4.72;;;3.13;;
74102;SDS011;62853;46.166;3.640;2023-03-01T06:20:12;5.80;;;3.20;;
74102;SDS011;62853;46.166;3.640;2023-03-01T06:23:06;5.63;;;3.45;;
74102;SDS011;62853;46.166;3.640;2023-03-01T06:25:34;4.95;;;3.00;;
74102;SDS011;62853;46.166;3.640;2023-03-01T06:28:05;6.22;;;3.55;;
74102;SDS011;62853;46.166;3.640;2023-03-01T06:30:35;4.70;;;3.38;;
74102;SDS011;62853;46.166;3.640;2023-03-01T06:33:28;5.45;;;3.50;;
74102;SDS011;62853;46.166;3.640;2023-03-01T06:36:14;5.55;;;3.10;;
74102;SDS011;62853;46.166;3.640;2023-03-01T06:39:03;6.43;;;3.30;;
74102;SDS011;62853;46.166;3.640;2023-03-01T06:41:32;7.13;;;3.45;;
74102;SDS011;62853;46.166;3.640;2023-03-01T06:44:03;6.20;;;3.65;;
74102;SDS011;62853;46.166;3.640;2023-03-01T06:46:34;6.63;;;3.30;;
74102;SDS011;62853;46.166;3.640;2023-03-01T06:49:07;4.70;;;3.33;;
74102;SDS011;62853;46.166;3.640;2023-03-01T06:51:35;5.70;;;3.10;;
74102;SDS011;62853;46.166;3.640;2023-03-01T06:54:22;5.18;;;3.28;;
74102;SDS011;62853;46.166;3.640;2023-03-01T06:56:51;5.07;;;3.20;;
74102;SDS011;62853;46.166;3.640;2023-03-01T06:59:25;5.72;;;3.38;;
74102;SDS011;62853;46.166;3.640;2023-03-01T07:01:53;6.15;;;3.53;;
74102;SDS011;62853;46.166;3.640;2023-03-01T07:04:22;5.90;;;3.10;;
74102;SDS011;62853;46.166;3.640;2023-03-01T07:06:47;4.93;;;3.20;;
74102;SDS011;62853;46.166;3.640;2023-03-01T07:09:21;5.10;;;3.40;;
74102;SDS011;62853;46.166;3.640;2023-03-01T07:11:49;6.78;;;3.60;;
74102;SDS011;62853;46.166;3.640;2023-03-01T07:14:15;5.65;;;3.40;;
74102;SDS011;62853;46.166;3.640;2023-03-01T07:16:41;5.35;;;3.45;;
74102;SDS011;62853;46.166;3.640;2023-03-01T07:19:14;5.43;;;3.33;;
74102;SDS011;62853;46.166;3.640;2023-03-01T07:21:42;5.28;;;3.55;;
74102;SDS011;62853;46.166;3.640;2023-03-01T07:24:08;4.93;;;3.10;;
74102;SDS011;62853;46.166;3.640;2023-03-01T07:26:34;4.45;;;3.42;;
74102;SDS011;62853;46.166;3.640;2023-03-01T07:29:00;6.50;;;4.05;;
74102;SDS011;62853;46.166;3.640;2023-03-01T07:31:26;7.75;;;4.35;;
74102;SDS011;62853;46.166;3.640;2023-03-01T07:33:57;8.75;;;5.30;;
74102;SDS011;62853;46.166;3.640;2023-03-01T07:36:25;7.97;;;4.32;;
74102;SDS011;62853;46.166;3.640;2023-03-01T07:38:50;8.20;;;4.45;;
74102;SDS011;62853;46.166;3.640;2023-03-01T07:41:20;6.78;;;4.30;;
74102;SDS011;62853;46.166;3.640;2023-03-01T07:43:46;6.18;;;4.32;;
74102;SDS011;62853;46.166;3.640;2023-03-01T07:46:16;7.72;;;4.45;;
74102;SDS011;62853;46.166;3.640;2023-03-01T07:48:43;7.53;;;4.70;;
74102;SDS011;62853;46.166;3.640;2023-03-01T07:51:09;10.43;;;4.30;;
74102;SDS011;62853;46.166;3.640;2023-03-01T07:53:44;8.10;;;5.05;;
74102;SDS011;62853;46.166;3.640;2023-03-01T07:56:13;9.73;;;4.65;;
74102;SDS011;62853;46.166;3.640;2023-03-01T07:58:45;6.65;;;4.05;;
74102;SDS011;62853;46.166;3.640;2023-03-01T08:01:12;7.72;;;4.85;;
74102;SDS011;62853;46.166;3.640;2023-03-01T08:03:40;7.15;;;4.43;;
74102;SDS011;62853;46.166;3.640;2023-03-01T08:06:14;6.15;;;3.70;;
74102;SDS011;62853;46.166;3.640;2023-03-01T08:08:46;6.32;;;4.15;;
74102;SDS011;62853;46.166;3.640;2023-03-01T08:11:22;8.65;;;5.32;;
74102;SDS011;62853;46.166;3.640;2023-03-01T08:13:55;8.27;;;4.90;;
74102;SDS011;62853;46.166;3.640;2023-03-01T08:16:24;8.35;;;5.00;;
74102;SDS011;62853;46.166;3.640;2023-03-01T08:19:23;7.80;;;4.18;;
74102;SDS011;62853;46.166;3.640;2023-03-01T08:21:49;9.63;;;4.90;;
74102;SDS011;62853;46.166;3.640;2023-03-01T08:24:14;7.13;;;4.55;;
74102;SDS011;62853;46.166;3.640;2023-03-01T08:26:45;5.97;;;4.30;;
74102;SDS011;62853;46.166;3.640;2023-03-01T08:29:12;7.93;;;4.57;;
74102;SDS011;62853;46.166;3.640;2023-03-01T08:31:48;5.78;;;3.55;;
74102;SDS011;62853;46.166;3.640;2023-03-01T08:34:14;5.85;;;4.03;;
74102;SDS011;62853;46.166;3.640;2023-03-01T08:36:45;5.72;;;4.10;;
74102;SDS011;62853;46.166;3.640;2023-03-01T08:39:26;9.38;;;4.82;;
74102;SDS011;62853;46.166;3.640;2023-03-01T08:42:01;6.75;;;4.32;;
74102;SDS011;62853;46.166;3.640;2023-03-01T08:44:32;7.38;;;4.78;;
74102;SDS011;62853;46.166;3.640;2023-03-01T08:47:00;7.95;;;4.97;;
74102;SDS011;62853;46.166;3.640;2023-03-01T08:49:38;6.80;;;4.63;;
74102;SDS011;62853;46.166;3.640;2023-03-01T08:52:21;8.55;;;5.07;;
74102;SDS011;62853;46.166;3.640;2023-03-01T08:54:47;12.48;;;6.05;;
74102;SDS011;62853;46.166;3.640;2023-03-01T08:57:34;8.60;;;5.65;;
74102;SDS011;62853;46.166;3.640;2023-03-01T09:00:09;9.77;;;5.70;;
74102;SDS011;62853;46.166;3.640;2023-03-01T09:02:38;7.25;;;5.03;;
74102;SDS011;62853;46.166;3.640;2023-03-01T09:05:03;7.38;;;5.15;;
74102;SDS011;62853;46.166;3.640;2023-03-01T09:07:29;9.23;;;5.65;;
74102;SDS011;62853;46.166;3.640;2023-03-01T09:09:57;6.35;;;4.50;;
74102;SDS011;62853;46.166;3.640;2023-03-01T09:12:22;6.95;;;5.13;;
74102;SDS011;62853;46.166;3.640;2023-03-01T09:14:52;7.35;;;5.07;;
74102;SDS011;62853;46.166;3.640;2023-03-01T09:17:20;7.28;;;4.85;;
74102;SDS011;62853;46.166;3.640;2023-03-01T09:19:48;9.30;;;5.00;;
74102;SDS011;62853;46.166;3.640;2023-03-01T09:22:19;9.27;;;5.50;;
74102;SDS011;62853;46.166;3.640;2023-03-01T09:25:07;9.05;;;5.32;;
74102;SDS011;62853;46.166;3.640;2023-03-01T09:27:42;12.25;;;6.07;;
74102;SDS011;62853;46.166;3.640;2023-03-01T09:30:10;9.68;;;6.03;;
74102;SDS011;62853;46.166;3.640;2023-03-01T09:33:02;9.50;;;5.40;;
74102;SDS011;62853;46.166;3.640;2023-03-01T09:35:56;7.25;;;5.18;;
74102;SDS011;62853;46.166;3.640;2023-03-01T09:38:56;8.63;;;5.78;;
74102;SDS011;62853;46.166;3.640;2023-03-01T09:42:02;6.53;;;4.75;;
74102;SDS011;62853;46.166;3.640;2023-03-01T09:47:33;10.27;;;6.13;;
74102;SDS011;62853;46.166;3.640;2023-03-01T09:56:25;7.95;;;4.93;;
74102;SDS011;62853;46.166;3.640;2023-03-01T10:11:01;13.98;;;6.32;;
74102;SDS011;62853;46.166;3.640;2023-03-01T10:19:53;8.45;;;5.53;;
74102;SDS011;62853;46.166;3.640;2023-03-01T10:31:50;8.13;;;6.75;;
74102;SDS011;62853;46.166;3.640;2023-03-01T10:34:33;8.00;;;5.97;;
74102;SDS011;62853;46.166;3.640;2023-03-01T10:37:37;8.90;;;5.90;;
74102;SDS011;62853;46.166;3.640;2023-03-01T10:47:55;7.95;;;5.55;;
74102;SDS011;62853;46.166;3.640;2023-03-01T10:51:23;7.82;;;5.40;;
74102;SDS011;62853;46.166;3.640;2023-03-01T10:54:13;8.90;;;5.88;;
74102;SDS011;62853;46.166;3.640;2023-03-01T10:57:32;9.65;;;7.97;;
74102;SDS011;62853;46.166;3.640;2023-03-01T11:06:29;10.60;;;6.43;;
74102;SDS011;62853;46.166;3.640;2023-03-01T11:12:49;9.32;;;6.22;;
74102;SDS011;62853;46.166;3.640;2023-03-01T11:15:52;9.48;;;8.30;;
74102;SDS011;62853;46.166;3.640;2023-03-01T11:26:31;8.93;;;6.40;;
74102;SDS011;62853;46.166;3.640;2023-03-01T11:32:11;9.27;;;6.32;;
74102;SDS011;62853;46.166;3.640;2023-03-01T12:09:38;9.05;;;5.55;;
74102;SDS011;62853;46.166;3.640;2023-03-01T12:18:41;8.88;;;5.40;;
74102;SDS011;62853;46.166;3.640;2023-03-01T12:27:43;6.70;;;5.10;;
74102;SDS011;62853;46.166;3.640;2023-03-01T12:45:49;6.57;;;4.22;;
74102;SDS011;62853;46.166;3.640;2023-03-01T13:15:27;8.45;;;5.68;;
74102;SDS011;62853;46.166;3.640;2023-03-01T13:20:57;6.32;;;4.50;;
74102;SDS011;62853;46.166;3.640;2023-03-01T13:27:28;9.90;;;5.82;;
74102;SDS011;62853;46.166;3.640;2023-03-01T13:30:41;8.73;;;4.90;;
74102;SDS011;62853;46.166;3.640;2023-03-01T13:42:40;6.95;;;5.00;;
74102;SDS011;62853;46.166;3.640;2023-03-01T13:48:07;6.72;;;4.55;;
74102;SDS011;62853;46.166;3.640;2023-03-01T13:54:30;6.75;;;5.82;;
74102;SDS011;62853;46.166;3.640;2023-03-01T14:10:07;7.15;;;4.53;;
74102;SDS011;62853;46.166;3.640;2023-03-01T14:12:55;6.90;;;6.20;;
74102;SDS011;62853;46.166;3.640;2023-03-01T14:16:20;6.97;;;4.10;;
74102;SDS011;62853;46.166;3.640;2023-03-01T14:38:29;6.70;;;6.10;;
74102;SDS011;62853;46.166;3.640;2023-03-01T14:41:32;6.95;;;5.72;;
74102;SDS011;62853;46.166;3.640;2023-03-01T14:45:53;8.32;;;4.78;;
74102;SDS011;62853;46.166;3.640;2023-03-01T14:48:20;5.40;;;4.00;;
74102;SDS011;62853;46.166;3.640;2023-03-01T14:53:58;6.63;;;4.57;;
74102;SDS011;62853;46.166;3.640;2023-03-01T15:23:52;6.93;;;6.13;;
74102;SDS011;62853;46.166;3.640;2023-03-01T15:26:25;6.47;;;5.88;;
74102;SDS011;62853;46.166;3.640;2023-03-01T15:29:11;7.72;;;5.03;;
74102;SDS011;62853;46.166;3.640;2023-03-01T15:31:53;7.13;;;6.43;;
74102;SDS011;62853;46.166;3.640;2023-03-01T15:34:40;6.35;;;4.00;;
74102;SDS011;62853;46.166;3.640;2023-03-01T15:37:39;6.53;;;4.30;;
74102;SDS011;62853;46.166;3.640;2023-03-01T15:41:01;6.00;;;4.47;;
74102;SDS011;62853;46.166;3.640;2023-03-01T15:43:50;6.13;;;3.85;;
74102;SDS011;62853;46.166;3.640;2023-03-01T15:48:56;8.18;;;4.85;;
74102;SDS011;62853;46.166;3.640;2023-03-01T15:51:31;7.70;;;5.72;;
74102;SDS011;62853;46.166;3.640;2023-03-01T15:54:06;6.15;;;4.10;;
74102;SDS011;62853;46.166;3.640;2023-03-01T15:56:43;7.22;;;4.35;;
74102;SDS011;62853;46.166;3.640;2023-03-01T15:59:14;6.55;;;5.95;;
74102;SDS011;62853;46.166;3.640;2023-03-01T16:09:11;8.02;;;6.40;;
74102;SDS011;62853;46.166;3.640;2023-03-01T16:12:03;7.78;;;6.22;;
74102;SDS011;62853;46.166;3.640;2023-03-01T16:14:54;7.03;;;4.30;;
74102;SDS011;62853;46.166;3.640;2023-03-01T16:17:42;7.05;;;4.40;;
74102;SDS011;62853;46.166;3.640;2023-03-01T16:20:35;7.18;;;6.47;;
74102;SDS011;62853;46.166;3.640;2023-03-01T16:23:21;7.07;;;4.38;;
74102;SDS011;62853;46.166;3.640;2023-03-01T16:26:28;9.07;;;7.68;;
74102;SDS011;62853;46.166;3.640;2023-03-01T16:29:13;7.72;;;6.93;;
74102;SDS011;62853;46.166;3.640;2023-03-01T16:38:02;6.95;;;4.88;;
74102;SDS011;62853;46.166;3.640;2023-03-01T16:40:50;8.38;;;4.50;;
74102;SDS011;62853;46.166;3.640;2023-03-01T16:53:43;6.82;;;5.40;;
74102;SDS011;62853;46.166;3.640;2023-03-01T17:00:19;6.80;;;4.25;;
74102;SDS011;62853;46.166;3.640;2023-03-01T17:03:33;5.63;;;3.55;;
74102;SDS011;62853;46.166;3.640;2023-03-01T17:06:32;5.00;;;3.20;;
74102;SDS011;62853;46.166;3.640;2023-03-01T17:12:26;10.15;;;5.97;;
74102;SDS011;62853;46.166;3.640;2023-03-01T17:14:56;6.60;;;4.47;;
74102;SDS011;62853;46.166;3.640;2023-03-01T17:17:49;7.55;;;4.25;;
74102;SDS011;62853;46.166;3.640;2023-03-01T17:20:18;5.90;;;4.03;;
74102;SDS011;62853;46.166;3.640;2023-03-01T17:22:55;6.82;;;3.90;;
74102;SDS011;62853;46.166;3.640;2023-03-01T17:28:50;7.40;;;3.95;;
74102;SDS011;62853;46.166;3.640;2023-03-01T17:31:19;4.90;;;3.35;;
74102;SDS011;62853;46.166;3.640;2023-03-01T17:37:00;6.50;;;5.88;;
74102;SDS011;62853;46.166;3.640;2023-03-01T17:39:53;6.03;;;3.42;;
74102;SDS011;62853;46.166;3.640;2023-03-01T17:42:27;4.80;;;3.00;;
74102;SDS011;62853;46.166;3.640;2023-03-01T17:44:53;5.45;;;3.28;;
74102;SDS011;62853;46.166;3.640;2023-03-01T17:47:45;5.75;;;3.40;;
74102;SDS011;62853;46.166;3.640;2023-03-01T17:50:28;5.90;;;5.30;;
74102;SDS011;62853;46.166;3.640;2023-03-01T17:53:16;6.63;;;6.03;;
74102;SDS011;62853;46.166;3.640;2023-03-01T17:56:02;7.93;;;4.35;;
74102;SDS011;62853;46.166;3.640;2023-03-01T17:58:48;7.10;;;3.40;;
74102;SDS011;62853;46.166;3.640;2023-03-01T18:02:01;7.07;;;3.58;;
74102;SDS011;62853;46.166;3.640;2023-03-01T18:04:45;6.82;;;4.40;;
74102;SDS011;62853;46.166;3.640;2023-03-01T18:08:04;5.00;;;3.53;;
74102;SDS011;62853;46.166;3.640;2023-03-01T18:11:03;5.45;;;3.20;;
74102;SDS011;62853;46.166;3.640;2023-03-01T18:13:46;6.40;;;3.67;;
74102;SDS011;62853;46.166;3.640;2023-03-01T18:16:23;6.50;;;3.80;;
74102;SDS011;62853;46.166;3.640;2023-03-01T18:18:55;5.18;;;3.33;;
74102;SDS011;62853;46.166;3.640;2023-03-01T18:21:33;7.25;;;3.90;;
74102;SDS011;62853;46.166;3.640;2023-03-01T18:24:06;5.38;;;3.22;;
74102;SDS011;62853;46.166;3.640;2023-03-01T18:27:13;5.22;;;3.38;;
74102;SDS011;62853;46.166;3.640;2023-03-01T18:29:56;6.05;;;3.03;;
74102;SDS011;62853;46.166;3.640;2023-03-01T18:32:38;6.63;;;3.72;;
74102;SDS011;62853;46.166;3.640;2023-03-01T18:35:34;4.05;;;2.90;;
74102;SDS011;62853;46.166;3.640;2023-03-01T18:38:23;5.15;;;3.30;;
74102;SDS011;62853;46.166;3.640;2023-03-01T18:40:57;5.40;;;3.33;;
74102;SDS011;62853;46.166;3.640;2023-03-01T18:47:00;4.10;;;2.45;;
74102;SDS011;62853;46.166;3.640;2023-03-01T18:50:07;4.90;;;2.95;;
74102;SDS011;62853;46.166;3.640;2023-03-01T18:52:37;5.40;;;3.13;;
74102;SDS011;62853;46.166;3.640;2023-03-01T18:55:25;5.47;;;3.10;;
74102;SDS011;62853;46.166;3.640;2023-03-01T18:58:04;5.90;;;3.28;;
74102;SDS011;62853;46.166;3.640;2023-03-01T19:00:53;6.13;;;3.75;;
74102;SDS011;62853;46.166;3.640;2023-03-01T19:10:06;5.65;;;3.38;;
74102;SDS011;62853;46.166;3.640;2023-03-01T19:13:04;4.93;;;3.17;;
74102;SDS011;62853;46.166;3.640;2023-03-01T19:20:00;4.50;;;2.78;;
74102;SDS011;62853;46.166;3.640;2023-03-01T19:29:20;5.50;;;3.10;;
74102;SDS011;62853;46.166;3.640;2023-03-01T19:32:20;4.63;;;2.83;;
74102;SDS011;62853;46.166;3.640;2023-03-01T19:35:19;4.32;;;2.80;;
74102;SDS011;62853;46.166;3.640;2023-03-01T20:05:03;5.78;;;2.97;;
74102;SDS011;62853;46.166;3.640;2023-03-01T20:21:34;4.18;;;2.80;;
74102;SDS011;62853;46.166;3.640;2023-03-01T20:24:28;5.70;;;3.33;;
74102;SDS011;62853;46.166;3.640;2023-03-01T20:27:37;5.13;;;3.20;;
74102;SDS011;62853;46.166;3.640;2023-03-01T20:30:19;5.30;;;3.63;;
74102;SDS011;62853;46.166;3.640;2023-03-01T20:46:50;4.70;;;2.83;;
74102;SDS011;62853;46.166;3.640;2023-03-01T20:49:37;4.32;;;2.05;;
74102;SDS011;62853;46.166;3.640;2023-03-01T20:55:22;3.97;;;2.53;;
74102;SDS011;62853;46.166;3.640;2023-03-01T21:05:16;4.10;;;2.20;;
74102;SDS011;62853;46.166;3.640;2023-03-01T21:08:14;3.70;;;2.00;;
74102;SDS011;62853;46.166;3.640;2023-03-01T21:11:01;3.75;;;2.28;;
74102;SDS011;62853;46.166;3.640;2023-03-01T21:13:31;3.15;;;2.30;;
74102;SDS011;62853;46.166;3.640;2023-03-01T21:16:04;5.60;;;3.53;;
74102;SDS011;62853;46.166;3.640;2023-03-01T21:18:41;6.63;;;3.10;;
74102;SDS011;62853;46.166;3.640;2023-03-01T21:21:17;8.18;;;7.25;;
74102;SDS011;62853;46.166;3.640;2023-03-01T21:24:19;7.32;;;3.92;;
74102;SDS011;62853;46.166;3.640;2023-03-01T21:26:58;6.53;;;4.25;;
74102;SDS011;62853;46.166;3.640;2023-03-01T21:29:41;6.22;;;3.83;;
74102;SDS011;62853;46.166;3.640;2023-03-01T21:32:32;6.17;;;3.30;;
74102;SDS011;62853;46.166;3.640;2023-03-01T21:34:58;5.78;;;3.33;;
74102;SDS011;62853;46.166;3.640;2023-03-01T21:41:21;5.30;;;3.10;;
74102;SDS011;62853;46.166;3.640;2023-03-01T21:43:58;4.90;;;3.03;;
74102;SDS011;62853;46.166;3.640;2023-03-01T21:49:17;6.00;;;2.95;;
74102;SDS011;62853;46.166;3.640;2023-03-01T21:52:29;3.97;;;2.58;;
74102;SDS011;62853;46.166;3.640;2023-03-01T21:55:45;4.22;;;2.53;;
74102;SDS011;62853;46.166;3.640;2023-03-01T21:58:44;4.28;;;2.72;;
74102;SDS011;62853;46.166;3.640;2023-03-01T22:01:32;5.97;;;2.78;;
74102;SDS011;62853;46.166;3.640;2023-03-01T22:04:00;4.78;;;2.67;;
74102;SDS011;62853;46.166;3.640;2023-03-01T22:06:44;3.63;;;2.20;;
74102;SDS011;62853;46.166;3.640;2023-03-01T22:09:27;4.22;;;2.40;;
74102;SDS011;62853;46.166;3.640;2023-03-01T22:12:11;3.90;;;2.50;;
74102;SDS011;62853;46.166;3.640;2023-03-01T22:14:48;4.55;;;2.45;;
74102;SDS011;62853;46.166;3.640;2023-03-01T22:18:15;4.18;;;2.53;;
74102;SDS011;62853;46.166;3.640;2023-03-01T22:35:16;5.95;;;2.53;;
74102;SDS011;62853;46.166;3.640;2023-03-01T22:45:34;5.40;;;2.83;;
74102;SDS011;62853;46.166;3.640;2023-03-01T22:48:54;5.25;;;2.40;;
74102;SDS011;62853;46.166;3.640;2023-03-01T22:51:48;5.53;;;2.75;;
74102;SDS011;62853;46.166;3.640;2023-03-01T23:05:31;4.30;;;2.55;;
74102;SDS011;62853;46.166;3.640;2023-03-01T23:41:31;4.30;;;2.03;;
74102;SDS011;62853;46.166;3.640;2023-03-01T23:48:40;4.55;;;2.53;;
74102;SDS011;62853;46.166;3.640;2023-03-01T23:58:41;4.28;;;2.15;;
